sensor_id;sensor_type;location;lat;lon;timestamp;P1;durP1;ratioP1;P2;durP2;ratioP2
75639;SDS011;64233;51.486;6.332;2022-12-07T00:00:55;18.90;;;7.30;;
75639;SDS011;64233;51.486;6.332;2022-12-07T00:03:40;11.73;;;6.83;;
75639;SDS011;64233;51.486;6.332;2022-12-07T00:06:07;9.38;;;6.55;;
75639;SDS011;64233;51.486;6.332;2022-12-07T00:08:35;9.02;;;6.20;;
75639;SDS011;64233;51.486;6.332;2022-12-07T00:11:01;10.48;;;7.28;;
75639;SDS011;64233;51.486;6.332;2022-12-07T00:13:34;10.55;;;6.35;;
75639;SDS011;64233;51.486;6.332;2022-12-07T00:16:04;9.05;;;7.25;;
75639;SDS011;64233;51.486;6.332;2022-12-07T00:18:34;9.88;;;7.22;;
75639;SDS011;64233;51.486;6.332;2022-12-07T00:21:00;9.50;;;7.18;;
75639;SDS011;64233;51.486;6.332;2022-12-07T00:23:27;11.48;;;7.03;;
75639;SDS011;64233;51.486;6.332;2022-12-07T00:25:52;9.68;;;6.20;;
75639;SDS011;64233;51.486;6.332;2022-12-07T00:28:17;10.43;;;6.05;;
75639;SDS011;64233;51.486;6.332;2022-12-07T00:30:43;12.13;;;7.13;;
75639;SDS011;64233;51.486;6.332;2022-12-07T00:33:08;9.13;;;6.22;;
75639;SDS011;64233;51.486;6.332;2022-12-07T00:35:33;11.43;;;6.32;;
75639;SDS011;64233;51.486;6.332;2022-12-07T00:37:58;10.85;;;7.32;;
75639;SDS011;64233;51.486;6.332;2022-12-07T00:40:24;20.67;;;8.68;;
75639;SDS011;64233;51.486;6.332;2022-12-07T00:42:49;11.77;;;6.60;;
75639;SDS011;64233;51.486;6.332;2022-12-07T00:45:14;11.02;;;6.97;;
75639;SDS011;64233;51.486;6.332;2022-12-07T00:47:39;18.10;;;6.97;;
75639;SDS011;64233;51.486;6.332;2022-12-07T00:50:05;10.13;;;6.18;;
75639;SDS011;64233;51.486;6.332;2022-12-07T00:52:31;12.48;;;6.80;;
75639;SDS011;64233;51.486;6.332;2022-12-07T00:54:56;10.00;;;6.43;;
75639;SDS011;64233;51.486;6.332;2022-12-07T00:57:21;13.52;;;7.32;;
75639;SDS011;64233;51.486;6.332;2022-12-07T00:59:47;10.10;;;6.20;;
75639;SDS011;64233;51.486;6.332;2022-12-07T01:02:13;11.95;;;7.43;;
75639;SDS011;64233;51.486;6.332;2022-12-07T01:04:38;10.77;;;6.35;;
75639;SDS011;64233;51.486;6.332;2022-12-07T01:07:10;9.60;;;6.82;;
75639;SDS011;64233;51.486;6.332;2022-12-07T01:09:35;9.48;;;6.97;;
75639;SDS011;64233;51.486;6.332;2022-12-07T01:12:00;12.05;;;6.28;;
75639;SDS011;64233;51.486;6.332;2022-12-07T01:14:26;12.45;;;7.10;;
75639;SDS011;64233;51.486;6.332;2022-12-07T01:16:51;15.90;;;6.97;;
75639;SDS011;64233;51.486;6.332;2022-12-07T01:19:16;8.98;;;6.65;;
75639;SDS011;64233;51.486;6.332;2022-12-07T01:21:41;8.48;;;7.05;;
75639;SDS011;64233;51.486;6.332;2022-12-07T01:24:13;9.00;;;6.97;;
75639;SDS011;64233;51.486;6.332;2022-12-07T01:26:45;12.57;;;7.05;;
75639;SDS011;64233;51.486;6.332;2022-12-07T01:29:10;11.65;;;7.13;;
75639;SDS011;64233;51.486;6.332;2022-12-07T01:31:35;13.25;;;7.72;;
75639;SDS011;64233;51.486;6.332;2022-12-07T01:34:01;11.90;;;8.10;;
75639;SDS011;64233;51.486;6.332;2022-12-07T01:36:33;13.77;;;7.35;;
75639;SDS011;64233;51.486;6.332;2022-12-07T01:39:01;13.88;;;6.70;;
75639;SDS011;64233;51.486;6.332;2022-12-07T01:41:30;12.63;;;7.57;;
75639;SDS011;64233;51.486;6.332;2022-12-07T01:46:56;10.00;;;6.15;;
75639;SDS011;64233;51.486;6.332;2022-12-07T01:52:13;12.73;;;7.75;;
75639;SDS011;64233;51.486;6.332;2022-12-07T01:55:01;15.00;;;7.70;;
75639;SDS011;64233;51.486;6.332;2022-12-07T01:57:30;14.60;;;7.65;;
75639;SDS011;64233;51.486;6.332;2022-12-07T01:59:57;9.93;;;6.05;;
75639;SDS011;64233;51.486;6.332;2022-12-07T02:02:27;13.73;;;7.47;;
75639;SDS011;64233;51.486;6.332;2022-12-07T02:05:03;11.48;;;6.53;;
75639;SDS011;64233;51.486;6.332;2022-12-07T02:07:30;10.13;;;7.63;;
75639;SDS011;64233;51.486;6.332;2022-12-07T02:09:57;13.32;;;7.60;;
75639;SDS011;64233;51.486;6.332;2022-12-07T02:12:50;14.38;;;6.30;;
75639;SDS011;64233;51.486;6.332;2022-12-07T02:15:20;10.43;;;6.25;;
75639;SDS011;64233;51.486;6.332;2022-12-07T02:17:59;11.52;;;7.55;;
75639;SDS011;64233;51.486;6.332;2022-12-07T02:20:33;11.82;;;7.45;;
75639;SDS011;64233;51.486;6.332;2022-12-07T02:23:15;9.80;;;6.95;;
75639;SDS011;64233;51.486;6.332;2022-12-07T02:26:02;11.35;;;6.32;;
75639;SDS011;64233;51.486;6.332;2022-12-07T02:29:09;9.77;;;6.30;;
75639;SDS011;64233;51.486;6.332;2022-12-07T02:31:39;16.65;;;8.00;;
75639;SDS011;64233;51.486;6.332;2022-12-07T02:34:21;10.70;;;6.68;;
75639;SDS011;64233;51.486;6.332;2022-12-07T02:36:54;10.50;;;6.75;;
75639;SDS011;64233;51.486;6.332;2022-12-07T02:39:33;12.68;;;7.57;;
75639;SDS011;64233;51.486;6.332;2022-12-07T02:42:09;12.05;;;7.50;;
75639;SDS011;64233;51.486;6.332;2022-12-07T02:44:41;10.80;;;6.22;;
75639;SDS011;64233;51.486;6.332;2022-12-07T02:47:07;12.35;;;7.72;;
75639;SDS011;64233;51.486;6.332;2022-12-07T02:49:37;14.18;;;7.63;;
75639;SDS011;64233;51.486;6.332;2022-12-07T02:52:04;12.30;;;7.65;;
75639;SDS011;64233;51.486;6.332;2022-12-07T02:54:29;13.50;;;7.80;;
75639;SDS011;64233;51.486;6.332;2022-12-07T03:05:11;11.20;;;6.80;;
75639;SDS011;64233;51.486;6.332;2022-12-07T03:10:55;15.75;;;7.75;;
75639;SDS011;64233;51.486;6.332;2022-12-07T03:13:32;10.63;;;7.03;;
75639;SDS011;64233;51.486;6.332;2022-12-07T03:18:49;12.45;;;7.78;;
75639;SDS011;64233;51.486;6.332;2022-12-07T03:21:19;12.43;;;7.72;;
75639;SDS011;64233;51.486;6.332;2022-12-07T03:23:50;11.20;;;6.43;;
75639;SDS011;64233;51.486;6.332;2022-12-07T03:26:18;14.52;;;7.47;;
75639;SDS011;64233;51.486;6.332;2022-12-07T03:28:52;9.57;;;7.50;;
75639;SDS011;64233;51.486;6.332;2022-12-07T03:31:22;10.68;;;6.03;;
75639;SDS011;64233;51.486;6.332;2022-12-07T03:36:39;11.00;;;7.35;;
75639;SDS011;64233;51.486;6.332;2022-12-07T03:41:58;8.35;;;6.68;;
75639;SDS011;64233;51.486;6.332;2022-12-07T03:44:26;14.43;;;6.50;;
75639;SDS011;64233;51.486;6.332;2022-12-07T03:47:03;15.65;;;6.80;;
75639;SDS011;64233;51.486;6.332;2022-12-07T03:49:46;8.60;;;6.43;;
75639;SDS011;64233;51.486;6.332;2022-12-07T03:52:40;14.95;;;7.22;;
75639;SDS011;64233;51.486;6.332;2022-12-07T03:55:15;11.18;;;7.63;;
75639;SDS011;64233;51.486;6.332;2022-12-07T03:57:45;12.35;;;7.22;;
75639;SDS011;64233;51.486;6.332;2022-12-07T04:00:13;9.60;;;5.82;;
75639;SDS011;64233;51.486;6.332;2022-12-07T04:02:39;13.02;;;7.38;;
75639;SDS011;64233;51.486;6.332;2022-12-07T04:05:06;9.23;;;6.15;;
75639;SDS011;64233;51.486;6.332;2022-12-07T04:07:32;13.27;;;7.72;;
75639;SDS011;64233;51.486;6.332;2022-12-07T04:09:57;10.63;;;6.68;;
75639;SDS011;64233;51.486;6.332;2022-12-07T04:12:22;8.90;;;5.95;;
75639;SDS011;64233;51.486;6.332;2022-12-07T04:14:48;9.48;;;6.03;;
75639;SDS011;64233;51.486;6.332;2022-12-07T04:17:13;8.77;;;6.00;;
75639;SDS011;64233;51.486;6.332;2022-12-07T04:19:39;10.00;;;6.28;;
75639;SDS011;64233;51.486;6.332;2022-12-07T04:22:04;9.55;;;6.57;;
75639;SDS011;64233;51.486;6.332;2022-12-07T04:24:30;15.45;;;6.28;;
75639;SDS011;64233;51.486;6.332;2022-12-07T04:26:56;11.70;;;6.30;;
75639;SDS011;64233;51.486;6.332;2022-12-07T04:29:22;12.07;;;6.10;;
75639;SDS011;64233;51.486;6.332;2022-12-07T04:31:47;10.38;;;5.47;;
75639;SDS011;64233;51.486;6.332;2022-12-07T04:34:13;13.52;;;6.95;;
75639;SDS011;64233;51.486;6.332;2022-12-07T04:36:40;12.18;;;5.57;;
75639;SDS011;64233;51.486;6.332;2022-12-07T04:39:06;15.27;;;7.50;;
75639;SDS011;64233;51.486;6.332;2022-12-07T04:41:33;11.25;;;5.68;;
75639;SDS011;64233;51.486;6.332;2022-12-07T04:43:59;9.68;;;6.18;;
75639;SDS011;64233;51.486;6.332;2022-12-07T04:46:26;13.02;;;6.15;;
75639;SDS011;64233;51.486;6.332;2022-12-07T04:48:53;12.52;;;6.47;;
75639;SDS011;64233;51.486;6.332;2022-12-07T04:51:20;11.65;;;6.38;;
75639;SDS011;64233;51.486;6.332;2022-12-07T04:53:52;10.35;;;5.97;;
75639;SDS011;64233;51.486;6.332;2022-12-07T04:56:19;10.05;;;6.10;;
75639;SDS011;64233;51.486;6.332;2022-12-07T04:58:45;10.50;;;6.53;;
75639;SDS011;64233;51.486;6.332;2022-12-07T05:01:12;12.43;;;6.35;;
75639;SDS011;64233;51.486;6.332;2022-12-07T05:03:38;8.20;;;5.95;;
75639;SDS011;64233;51.486;6.332;2022-12-07T05:06:03;10.63;;;5.50;;
75639;SDS011;64233;51.486;6.332;2022-12-07T05:08:29;11.70;;;6.43;;
75639;SDS011;64233;51.486;6.332;2022-12-07T05:10:55;9.90;;;6.18;;
75639;SDS011;64233;51.486;6.332;2022-12-07T05:13:20;10.80;;;6.63;;
75639;SDS011;64233;51.486;6.332;2022-12-07T05:15:48;9.48;;;6.15;;
75639;SDS011;64233;51.486;6.332;2022-12-07T05:18:14;10.00;;;5.75;;
75639;SDS011;64233;51.486;6.332;2022-12-07T05:20:40;10.93;;;6.03;;
75639;SDS011;64233;51.486;6.332;2022-12-07T05:23:06;10.27;;;5.60;;
75639;SDS011;64233;51.486;6.332;2022-12-07T05:25:32;13.15;;;6.40;;
75639;SDS011;64233;51.486;6.332;2022-12-07T05:27:57;10.50;;;6.25;;
75639;SDS011;64233;51.486;6.332;2022-12-07T05:30:23;14.27;;;5.47;;
75639;SDS011;64233;51.486;6.332;2022-12-07T05:32:48;10.95;;;5.95;;
75639;SDS011;64233;51.486;6.332;2022-12-07T05:35:14;9.80;;;5.68;;
75639;SDS011;64233;51.486;6.332;2022-12-07T05:37:39;9.60;;;5.70;;
75639;SDS011;64233;51.486;6.332;2022-12-07T05:40:05;12.82;;;5.43;;
75639;SDS011;64233;51.486;6.332;2022-12-07T05:42:31;12.10;;;5.47;;
75639;SDS011;64233;51.486;6.332;2022-12-07T05:44:56;9.23;;;4.70;;
75639;SDS011;64233;51.486;6.332;2022-12-07T05:47:21;10.07;;;6.15;;
75639;SDS011;64233;51.486;6.332;2022-12-07T05:49:47;8.07;;;5.20;;
75639;SDS011;64233;51.486;6.332;2022-12-07T05:52:12;11.25;;;5.22;;
75639;SDS011;64233;51.486;6.332;2022-12-07T05:54:37;11.88;;;5.25;;
75639;SDS011;64233;51.486;6.332;2022-12-07T05:57:03;9.70;;;6.03;;
75639;SDS011;64233;51.486;6.332;2022-12-07T05:59:28;10.30;;;4.97;;
75639;SDS011;64233;51.486;6.332;2022-12-07T06:01:55;10.75;;;5.82;;
75639;SDS011;64233;51.486;6.332;2022-12-07T06:04:22;11.73;;;6.38;;
75639;SDS011;64233;51.486;6.332;2022-12-07T06:06:49;7.40;;;5.68;;
75639;SDS011;64233;51.486;6.332;2022-12-07T06:09:16;10.57;;;5.50;;
75639;SDS011;64233;51.486;6.332;2022-12-07T06:11:43;7.05;;;5.28;;
75639;SDS011;64233;51.486;6.332;2022-12-07T06:14:27;9.98;;;5.57;;
75639;SDS011;64233;51.486;6.332;2022-12-07T06:16:53;6.95;;;5.43;;
75639;SDS011;64233;51.486;6.332;2022-12-07T06:19:18;7.88;;;5.18;;
75639;SDS011;64233;51.486;6.332;2022-12-07T06:21:44;11.88;;;5.88;;
75639;SDS011;64233;51.486;6.332;2022-12-07T06:24:12;8.27;;;5.30;;
75639;SDS011;64233;51.486;6.332;2022-12-07T06:26:39;8.55;;;4.97;;
75639;SDS011;64233;51.486;6.332;2022-12-07T06:29:05;7.47;;;4.93;;
75639;SDS011;64233;51.486;6.332;2022-12-07T06:31:30;8.13;;;5.35;;
75639;SDS011;64233;51.486;6.332;2022-12-07T06:33:57;7.68;;;4.78;;
75639;SDS011;64233;51.486;6.332;2022-12-07T06:36:26;7.30;;;4.28;;
75639;SDS011;64233;51.486;6.332;2022-12-07T06:38:52;7.07;;;4.93;;
75639;SDS011;64233;51.486;6.332;2022-12-07T06:41:17;8.93;;;5.05;;
75639;SDS011;64233;51.486;6.332;2022-12-07T06:43:43;7.75;;;4.30;;
75639;SDS011;64233;51.486;6.332;2022-12-07T06:46:08;10.20;;;4.30;;
75639;SDS011;64233;51.486;6.332;2022-12-07T06:48:33;11.68;;;4.57;;
75639;SDS011;64233;51.486;6.332;2022-12-07T06:50:58;10.50;;;5.40;;
75639;SDS011;64233;51.486;6.332;2022-12-07T06:53:24;7.78;;;3.85;;
75639;SDS011;64233;51.486;6.332;2022-12-07T06:55:50;8.23;;;4.45;;
75639;SDS011;64233;51.486;6.332;2022-12-07T06:58:15;6.85;;;4.88;;
75639;SDS011;64233;51.486;6.332;2022-12-07T07:00:41;11.05;;;4.78;;
75639;SDS011;64233;51.486;6.332;2022-12-07T07:03:07;8.77;;;4.43;;
75639;SDS011;64233;51.486;6.332;2022-12-07T07:05:32;11.93;;;4.47;;
75639;SDS011;64233;51.486;6.332;2022-12-07T07:07:58;7.18;;;4.78;;
75639;SDS011;64233;51.486;6.332;2022-12-07T07:10:23;6.88;;;4.82;;
75639;SDS011;64233;51.486;6.332;2022-12-07T07:12:48;5.55;;;3.53;;
75639;SDS011;64233;51.486;6.332;2022-12-07T07:15:14;8.57;;;4.18;;
75639;SDS011;64233;51.486;6.332;2022-12-07T07:17:39;8.65;;;4.10;;
75639;SDS011;64233;51.486;6.332;2022-12-07T07:20:05;12.55;;;4.95;;
75639;SDS011;64233;51.486;6.332;2022-12-07T07:22:31;11.55;;;4.95;;
75639;SDS011;64233;51.486;6.332;2022-12-07T07:25:02;8.35;;;4.25;;
75639;SDS011;64233;51.486;6.332;2022-12-07T07:27:35;12.02;;;5.30;;
75639;SDS011;64233;51.486;6.332;2022-12-07T07:30:01;10.07;;;5.10;;
75639;SDS011;64233;51.486;6.332;2022-12-07T07:32:26;6.22;;;4.68;;
75639;SDS011;64233;51.486;6.332;2022-12-07T07:34:51;6.07;;;4.07;;
75639;SDS011;64233;51.486;6.332;2022-12-07T07:37:17;9.52;;;4.95;;
75639;SDS011;64233;51.486;6.332;2022-12-07T07:39:42;10.98;;;4.97;;
75639;SDS011;64233;51.486;6.332;2022-12-07T07:42:07;11.05;;;5.53;;
75639;SDS011;64233;51.486;6.332;2022-12-07T07:44:33;12.18;;;4.35;;
75639;SDS011;64233;51.486;6.332;2022-12-07T07:46:59;8.13;;;5.15;;
75639;SDS011;64233;51.486;6.332;2022-12-07T07:49:25;8.07;;;4.70;;
75639;SDS011;64233;51.486;6.332;2022-12-07T07:51:50;7.28;;;4.32;;
75639;SDS011;64233;51.486;6.332;2022-12-07T07:54:16;7.03;;;4.82;;
75639;SDS011;64233;51.486;6.332;2022-12-07T07:56:41;11.15;;;5.22;;
75639;SDS011;64233;51.486;6.332;2022-12-07T07:59:06;9.02;;;5.13;;
75639;SDS011;64233;51.486;6.332;2022-12-07T08:01:32;6.78;;;5.07;;
75639;SDS011;64233;51.486;6.332;2022-12-07T08:03:57;5.55;;;3.63;;
75639;SDS011;64233;51.486;6.332;2022-12-07T08:06:23;12.13;;;4.75;;
75639;SDS011;64233;51.486;6.332;2022-12-07T08:08:48;9.25;;;4.70;;
75639;SDS011;64233;51.486;6.332;2022-12-07T08:11:13;6.20;;;4.38;;
75639;SDS011;64233;51.486;6.332;2022-12-07T08:13:39;8.35;;;4.68;;
75639;SDS011;64233;51.486;6.332;2022-12-07T08:16:05;7.03;;;4.68;;
75639;SDS011;64233;51.486;6.332;2022-12-07T08:18:36;8.02;;;4.85;;
75639;SDS011;64233;51.486;6.332;2022-12-07T08:21:05;8.65;;;5.45;;
75639;SDS011;64233;51.486;6.332;2022-12-07T08:23:32;7.32;;;4.93;;
75639;SDS011;64233;51.486;6.332;2022-12-07T08:26:02;6.05;;;4.75;;
75639;SDS011;64233;51.486;6.332;2022-12-07T08:28:29;6.50;;;4.05;;
75639;SDS011;64233;51.486;6.332;2022-12-07T08:31:27;6.65;;;3.75;;
75639;SDS011;64233;51.486;6.332;2022-12-07T08:33:46;11.85;;;4.88;;
75639;SDS011;64233;51.486;6.332;2022-12-07T08:36:12;7.75;;;5.05;;
75639;SDS011;64233;51.486;6.332;2022-12-07T08:38:38;7.47;;;5.35;;
75639;SDS011;64233;51.486;6.332;2022-12-07T08:41:05;9.88;;;4.47;;
75639;SDS011;64233;51.486;6.332;2022-12-07T08:43:31;5.90;;;4.65;;
75639;SDS011;64233;51.486;6.332;2022-12-07T08:46:02;5.43;;;4.35;;
75639;SDS011;64233;51.486;6.332;2022-12-07T08:48:36;6.95;;;4.38;;
75639;SDS011;64233;51.486;6.332;2022-12-07T08:51:09;10.30;;;4.57;;
75639;SDS011;64233;51.486;6.332;2022-12-07T08:53:36;8.80;;;4.95;;
75639;SDS011;64233;51.486;6.332;2022-12-07T08:56:03;8.15;;;4.63;;
75639;SDS011;64233;51.486;6.332;2022-12-07T08:58:29;7.85;;;4.82;;
75639;SDS011;64233;51.486;6.332;2022-12-07T09:00:55;6.15;;;4.15;;
75639;SDS011;64233;51.486;6.332;2022-12-07T09:03:20;5.50;;;3.90;;
75639;SDS011;64233;51.486;6.332;2022-12-07T09:05:45;5.35;;;4.45;;
75639;SDS011;64233;51.486;6.332;2022-12-07T09:08:11;5.88;;;4.47;;
75639;SDS011;64233;51.486;6.332;2022-12-07T09:10:36;14.13;;;4.78;;
75639;SDS011;64233;51.486;6.332;2022-12-07T09:13:01;8.43;;;4.57;;
75639;SDS011;64233;51.486;6.332;2022-12-07T09:15:27;11.13;;;4.18;;
75639;SDS011;64233;51.486;6.332;2022-12-07T09:17:54;11.90;;;4.40;;
75639;SDS011;64233;51.486;6.332;2022-12-07T09:20:19;7.97;;;4.30;;
75639;SDS011;64233;51.486;6.332;2022-12-07T09:22:44;6.68;;;4.30;;
75639;SDS011;64233;51.486;6.332;2022-12-07T09:25:09;13.88;;;4.72;;
75639;SDS011;64233;51.486;6.332;2022-12-07T09:27:35;8.13;;;4.80;;
75639;SDS011;64233;51.486;6.332;2022-12-07T09:30:00;6.47;;;5.03;;
75639;SDS011;64233;51.486;6.332;2022-12-07T09:32:26;8.27;;;4.05;;
75639;SDS011;64233;51.486;6.332;2022-12-07T09:34:51;7.43;;;5.20;;
75639;SDS011;64233;51.486;6.332;2022-12-07T09:37:16;6.55;;;4.07;;
75639;SDS011;64233;51.486;6.332;2022-12-07T09:39:42;5.78;;;3.88;;
75639;SDS011;64233;51.486;6.332;2022-12-07T09:42:07;6.80;;;4.22;;
75639;SDS011;64233;51.486;6.332;2022-12-07T09:44:35;10.50;;;4.47;;
75639;SDS011;64233;51.486;6.332;2022-12-07T09:47:01;6.88;;;4.15;;
75639;SDS011;64233;51.486;6.332;2022-12-07T09:49:28;8.77;;;4.88;;
75639;SDS011;64233;51.486;6.332;2022-12-07T09:52:38;11.85;;;3.85;;
75639;SDS011;64233;51.486;6.332;2022-12-07T09:54:52;5.47;;;4.00;;
75639;SDS011;64233;51.486;6.332;2022-12-07T09:57:19;11.15;;;4.40;;
75639;SDS011;64233;51.486;6.332;2022-12-07T09:59:54;6.93;;;4.07;;
75639;SDS011;64233;51.486;6.332;2022-12-07T10:05:02;10.63;;;4.35;;
75639;SDS011;64233;51.486;6.332;2022-12-07T10:07:29;7.50;;;4.00;;
75639;SDS011;64233;51.486;6.332;2022-12-07T10:09:54;5.47;;;3.92;;
75639;SDS011;64233;51.486;6.332;2022-12-07T10:12:20;5.75;;;4.13;;
75639;SDS011;64233;51.486;6.332;2022-12-07T10:14:56;8.80;;;3.90;;
75639;SDS011;64233;51.486;6.332;2022-12-07T10:17:31;4.28;;;3.45;;
75639;SDS011;64233;51.486;6.332;2022-12-07T10:23:02;5.18;;;3.60;;
75639;SDS011;64233;51.486;6.332;2022-12-07T10:25:33;7.65;;;4.00;;
75639;SDS011;64233;51.486;6.332;2022-12-07T10:28:10;4.95;;;2.50;;
75639;SDS011;64233;51.486;6.332;2022-12-07T10:36:08;5.63;;;3.60;;
75639;SDS011;64233;51.486;6.332;2022-12-07T10:41:28;8.95;;;3.88;;
75639;SDS011;64233;51.486;6.332;2022-12-07T10:43:55;5.35;;;3.83;;
75639;SDS011;64233;51.486;6.332;2022-12-07T10:46:36;7.32;;;4.93;;
75639;SDS011;64233;51.486;6.332;2022-12-07T10:52:10;10.18;;;4.35;;
75639;SDS011;64233;51.486;6.332;2022-12-07T10:55:02;6.53;;;3.95;;
75639;SDS011;64233;51.486;6.332;2022-12-07T10:57:32;13.02;;;3.65;;
75639;SDS011;64233;51.486;6.332;2022-12-07T11:05:30;6.10;;;3.33;;
75639;SDS011;64233;51.486;6.332;2022-12-07T11:10:55;4.22;;;3.67;;
75639;SDS011;64233;51.486;6.332;2022-12-07T11:21:49;10.10;;;4.40;;
75639;SDS011;64233;51.486;6.332;2022-12-07T11:24:27;3.88;;;3.42;;
75639;SDS011;64233;51.486;6.332;2022-12-07T11:27:00;5.05;;;3.05;;
75639;SDS011;64233;51.486;6.332;2022-12-07T11:29:53;8.57;;;3.45;;
75639;SDS011;64233;51.486;6.332;2022-12-07T11:38:16;3.28;;;2.30;;
75639;SDS011;64233;51.486;6.332;2022-12-07T11:40:43;3.50;;;2.80;;
75639;SDS011;64233;51.486;6.332;2022-12-07T11:43:31;4.25;;;2.47;;
75639;SDS011;64233;51.486;6.332;2022-12-07T11:46:00;7.63;;;4.43;;
75639;SDS011;64233;51.486;6.332;2022-12-07T11:48:41;5.53;;;2.10;;
75639;SDS011;64233;51.486;6.332;2022-12-07T11:51:12;4.00;;;3.47;;
75639;SDS011;64233;51.486;6.332;2022-12-07T11:53:39;5.90;;;2.92;;
75639;SDS011;64233;51.486;6.332;2022-12-07T11:56:12;3.95;;;3.28;;
75639;SDS011;64233;51.486;6.332;2022-12-07T12:06:42;4.97;;;3.33;;
75639;SDS011;64233;51.486;6.332;2022-12-07T12:11:55;7.60;;;2.90;;
75639;SDS011;64233;51.486;6.332;2022-12-07T12:14:36;5.18;;;2.67;;
75639;SDS011;64233;51.486;6.332;2022-12-07T12:17:28;3.28;;;2.03;;
75639;SDS011;64233;51.486;6.332;2022-12-07T12:26:19;2.42;;;2.22;;
75639;SDS011;64233;51.486;6.332;2022-12-07T12:33:55;3.03;;;1.75;;
75639;SDS011;64233;51.486;6.332;2022-12-07T12:36:26;3.97;;;1.98;;
75639;SDS011;64233;51.486;6.332;2022-12-07T12:47:03;6.35;;;1.92;;
75639;SDS011;64233;51.486;6.332;2022-12-07T12:57:33;2.70;;;1.70;;
75639;SDS011;64233;51.486;6.332;2022-12-07T13:00:00;3.25;;;1.40;;
75639;SDS011;64233;51.486;6.332;2022-12-07T13:05:01;8.87;;;1.70;;
75639;SDS011;64233;51.486;6.332;2022-12-07T13:15:43;2.78;;;1.60;;
75639;SDS011;64233;51.486;6.332;2022-12-07T13:20:55;2.90;;;1.20;;
75639;SDS011;64233;51.486;6.332;2022-12-07T13:23:25;5.32;;;1.65;;
75639;SDS011;64233;51.486;6.332;2022-12-07T13:26:14;1.98;;;1.55;;
75639;SDS011;64233;51.486;6.332;2022-12-07T13:28:41;2.47;;;1.35;;
75639;SDS011;64233;51.486;6.332;2022-12-07T13:31:19;3.40;;;1.45;;
75639;SDS011;64233;51.486;6.332;2022-12-07T13:33:51;3.03;;;1.70;;
75639;SDS011;64233;51.486;6.332;2022-12-07T13:36:27;2.55;;;1.60;;
75639;SDS011;64233;51.486;6.332;2022-12-07T13:39:00;6.85;;;2.78;;
75639;SDS011;64233;51.486;6.332;2022-12-07T13:41:41;8.25;;;1.75;;
75639;SDS011;64233;51.486;6.332;2022-12-07T13:44:11;2.55;;;1.58;;
75639;SDS011;64233;51.486;6.332;2022-12-07T13:46:42;1.67;;;1.50;;
75639;SDS011;64233;51.486;6.332;2022-12-07T13:49:16;5.40;;;1.45;;
75639;SDS011;64233;51.486;6.332;2022-12-07T13:51:43;2.77;;;1.50;;
75639;SDS011;64233;51.486;6.332;2022-12-07T13:54:10;4.72;;;1.70;;
75639;SDS011;64233;51.486;6.332;2022-12-07T13:56:36;3.95;;;1.60;;
75639;SDS011;64233;51.486;6.332;2022-12-07T13:59:02;5.32;;;1.77;;
75639;SDS011;64233;51.486;6.332;2022-12-07T14:01:30;3.90;;;1.70;;
75639;SDS011;64233;51.486;6.332;2022-12-07T14:04:15;4.30;;;1.75;;
75639;SDS011;64233;51.486;6.332;2022-12-07T14:06:54;3.20;;;1.90;;
75639;SDS011;64233;51.486;6.332;2022-12-07T14:09:20;2.08;;;1.20;;
75639;SDS011;64233;51.486;6.332;2022-12-07T14:11:47;4.63;;;1.60;;
75639;SDS011;64233;51.486;6.332;2022-12-07T14:14:16;7.15;;;1.58;;
75639;SDS011;64233;51.486;6.332;2022-12-07T14:16:54;7.05;;;1.92;;
75639;SDS011;64233;51.486;6.332;2022-12-07T14:19:41;1.75;;;1.25;;
75639;SDS011;64233;51.486;6.332;2022-12-07T14:22:18;2.13;;;1.60;;
75639;SDS011;64233;51.486;6.332;2022-12-07T14:25:13;1.95;;;1.38;;
75639;SDS011;64233;51.486;6.332;2022-12-07T14:27:39;4.47;;;1.20;;
75639;SDS011;64233;51.486;6.332;2022-12-07T14:30:15;3.47;;;1.23;;
75639;SDS011;64233;51.486;6.332;2022-12-07T14:32:42;6.05;;;1.83;;
75639;SDS011;64233;51.486;6.332;2022-12-07T14:35:13;5.97;;;1.55;;
75639;SDS011;64233;51.486;6.332;2022-12-07T14:37:42;4.18;;;1.40;;
75639;SDS011;64233;51.486;6.332;2022-12-07T14:40:11;3.85;;;1.40;;
75639;SDS011;64233;51.486;6.332;2022-12-07T14:42:38;4.07;;;1.48;;
75639;SDS011;64233;51.486;6.332;2022-12-07T14:45:05;1.95;;;1.00;;
75639;SDS011;64233;51.486;6.332;2022-12-07T14:47:31;2.75;;;1.52;;
75639;SDS011;64233;51.486;6.332;2022-12-07T14:49:56;6.53;;;2.55;;
75639;SDS011;64233;51.486;6.332;2022-12-07T14:52:23;3.22;;;1.63;;
75639;SDS011;64233;51.486;6.332;2022-12-07T14:54:51;3.85;;;1.55;;
75639;SDS011;64233;51.486;6.332;2022-12-07T14:57:17;6.15;;;1.90;;
75639;SDS011;64233;51.486;6.332;2022-12-07T14:59:42;5.47;;;1.65;;
75639;SDS011;64233;51.486;6.332;2022-12-07T15:02:09;3.15;;;1.67;;
75639;SDS011;64233;51.486;6.332;2022-12-07T15:04:36;3.40;;;1.70;;
75639;SDS011;64233;51.486;6.332;2022-12-07T15:07:02;2.83;;;2.38;;
75639;SDS011;64233;51.486;6.332;2022-12-07T15:09:30;5.50;;;1.77;;
75639;SDS011;64233;51.486;6.332;2022-12-07T15:11:55;7.22;;;1.95;;
75639;SDS011;64233;51.486;6.332;2022-12-07T15:14:20;3.03;;;1.42;;
75639;SDS011;64233;51.486;6.332;2022-12-07T15:16:46;5.35;;;1.10;;
75639;SDS011;64233;51.486;6.332;2022-12-07T15:19:29;4.53;;;1.83;;
75639;SDS011;64233;51.486;6.332;2022-12-07T15:21:55;6.20;;;1.23;;
75639;SDS011;64233;51.486;6.332;2022-12-07T15:24:21;2.85;;;1.48;;
75639;SDS011;64233;51.486;6.332;2022-12-07T15:26:46;2.63;;;1.58;;
75639;SDS011;64233;51.486;6.332;2022-12-07T15:29:12;3.60;;;1.08;;
75639;SDS011;64233;51.486;6.332;2022-12-07T15:31:39;5.13;;;1.77;;
75639;SDS011;64233;51.486;6.332;2022-12-07T15:34:05;5.63;;;1.90;;
75639;SDS011;64233;51.486;6.332;2022-12-07T15:36:31;2.83;;;1.33;;
75639;SDS011;64233;51.486;6.332;2022-12-07T15:38:57;2.20;;;1.52;;
75639;SDS011;64233;51.486;6.332;2022-12-07T15:41:23;5.15;;;1.75;;
75639;SDS011;64233;51.486;6.332;2022-12-07T15:43:49;1.67;;;1.58;;
75639;SDS011;64233;51.486;6.332;2022-12-07T15:46:34;2.05;;;1.40;;
75639;SDS011;64233;51.486;6.332;2022-12-07T15:49:01;3.75;;;1.55;;
75639;SDS011;64233;51.486;6.332;2022-12-07T15:51:27;2.13;;;1.35;;
75639;SDS011;64233;51.486;6.332;2022-12-07T15:53:52;2.10;;;1.30;;
75639;SDS011;64233;51.486;6.332;2022-12-07T15:56:18;4.90;;;1.65;;
75639;SDS011;64233;51.486;6.332;2022-12-07T15:58:44;5.88;;;1.65;;
75639;SDS011;64233;51.486;6.332;2022-12-07T16:01:10;5.20;;;1.55;;
75639;SDS011;64233;51.486;6.332;2022-12-07T16:03:36;1.73;;;1.48;;
75639;SDS011;64233;51.486;6.332;2022-12-07T16:06:02;1.58;;;1.48;;
75639;SDS011;64233;51.486;6.332;2022-12-07T16:08:27;6.88;;;2.65;;
75639;SDS011;64233;51.486;6.332;2022-12-07T16:10:52;3.10;;;1.65;;
75639;SDS011;64233;51.486;6.332;2022-12-07T16:13:17;3.92;;;2.20;;
75639;SDS011;64233;51.486;6.332;2022-12-07T16:15:44;2.30;;;1.23;;
75639;SDS011;64233;51.486;6.332;2022-12-07T16:18:09;0.90;;;0.90;;
75639;SDS011;64233;51.486;6.332;2022-12-07T16:20:34;1.80;;;1.58;;
75639;SDS011;64233;51.486;6.332;2022-12-07T16:23:00;1.45;;;0.90;;
75639;SDS011;64233;51.486;6.332;2022-12-07T16:25:25;1.67;;;0.93;;
75639;SDS011;64233;51.486;6.332;2022-12-07T16:27:51;1.50;;;1.05;;
75639;SDS011;64233;51.486;6.332;2022-12-07T16:30:17;1.98;;;1.10;;
75639;SDS011;64233;51.486;6.332;2022-12-07T16:32:42;1.20;;;1.10;;
75639;SDS011;64233;51.486;6.332;2022-12-07T16:35:08;4.22;;;0.73;;
75639;SDS011;64233;51.486;6.332;2022-12-07T16:37:34;1.25;;;0.77;;
75639;SDS011;64233;51.486;6.332;2022-12-07T16:39:59;1.42;;;1.00;;
75639;SDS011;64233;51.486;6.332;2022-12-07T16:42:25;2.17;;;1.00;;
75639;SDS011;64233;51.486;6.332;2022-12-07T16:44:51;0.68;;;0.60;;
75639;SDS011;64233;51.486;6.332;2022-12-07T16:47:16;3.88;;;1.15;;
75639;SDS011;64233;51.486;6.332;2022-12-07T16:49:42;2.20;;;0.80;;